sensor_id;sensor_type;location;lat;lon;timestamp;P1;durP1;ratioP1;P2;durP2;ratioP2
67696;SDS011;54486;51.442;6.778;2023-06-26T00:00:33;9.15;;;4.20;;
67696;SDS011;54486;51.442;6.778;2023-06-26T00:03:02;9.18;;;4.03;;
67696;SDS011;54486;51.442;6.778;2023-06-26T00:05:30;9.48;;;4.38;;
67696;SDS011;54486;51.442;6.778;2023-06-26T00:07:57;10.00;;;4.45;;
67696;SDS011;54486;51.442;6.778;2023-06-26T00:10:27;9.33;;;4.40;;
67696;SDS011;54486;51.442;6.778;2023-06-26T00:12:54;9.27;;;4.45;;
67696;SDS011;54486;51.442;6.778;2023-06-26T00:15:21;9.40;;;4.35;;
67696;SDS011;54486;51.442;6.778;2023-06-26T00:17:49;9.60;;;4.47;;
67696;SDS011;54486;51.442;6.778;2023-06-26T00:20:17;9.20;;;4.33;;
67696;SDS011;54486;51.442;6.778;2023-06-26T00:22:45;9.35;;;4.50;;
67696;SDS011;54486;51.442;6.778;2023-06-26T00:25:12;9.15;;;4.15;;
67696;SDS011;54486;51.442;6.778;2023-06-26T00:27:40;9.70;;;4.23;;
67696;SDS011;54486;51.442;6.778;2023-06-26T00:30:07;9.77;;;4.80;;
67696;SDS011;54486;51.442;6.778;2023-06-26T00:32:34;10.10;;;4.63;;
67696;SDS011;54486;51.442;6.778;2023-06-26T00:35:02;9.27;;;4.33;;
67696;SDS011;54486;51.442;6.778;2023-06-26T00:37:30;9.52;;;4.40;;
67696;SDS011;54486;51.442;6.778;2023-06-26T00:39:57;9.63;;;4.30;;
67696;SDS011;54486;51.442;6.778;2023-06-26T00:42:24;9.73;;;4.80;;
67696;SDS011;54486;51.442;6.778;2023-06-26T00:44:51;9.73;;;4.60;;
67696;SDS011;54486;51.442;6.778;2023-06-26T00:47:18;9.93;;;4.72;;
67696;SDS011;54486;51.442;6.778;2023-06-26T00:49:45;10.53;;;4.53;;
67696;SDS011;54486;51.442;6.778;2023-06-26T00:52:12;11.38;;;4.30;;
67696;SDS011;54486;51.442;6.778;2023-06-26T00:54:40;9.10;;;4.63;;
67696;SDS011;54486;51.442;6.778;2023-06-26T00:57:07;11.00;;;4.47;;
67696;SDS011;54486;51.442;6.778;2023-06-26T00:59:35;9.77;;;4.45;;
67696;SDS011;54486;51.442;6.778;2023-06-26T01:02:02;10.07;;;4.53;;
67696;SDS011;54486;51.442;6.778;2023-06-26T01:04:31;10.18;;;4.68;;
67696;SDS011;54486;51.442;6.778;2023-06-26T01:07:00;9.35;;;4.22;;
67696;SDS011;54486;51.442;6.778;2023-06-26T01:09:29;9.25;;;4.40;;
67696;SDS011;54486;51.442;6.778;2023-06-26T01:11:58;10.25;;;4.63;;
67696;SDS011;54486;51.442;6.778;2023-06-26T01:14:25;9.52;;;4.72;;
67696;SDS011;54486;51.442;6.778;2023-06-26T01:16:52;10.75;;;5.13;;
67696;SDS011;54486;51.442;6.778;2023-06-26T01:19:20;11.05;;;5.07;;
67696;SDS011;54486;51.442;6.778;2023-06-26T01:21:58;9.35;;;4.30;;
67696;SDS011;54486;51.442;6.778;2023-06-26T01:24:31;10.40;;;4.67;;
67696;SDS011;54486;51.442;6.778;2023-06-26T01:27:00;10.82;;;4.53;;
67696;SDS011;54486;51.442;6.778;2023-06-26T01:29:30;9.43;;;5.15;;
67696;SDS011;54486;51.442;6.778;2023-06-26T01:32:00;10.23;;;4.78;;
67696;SDS011;54486;51.442;6.778;2023-06-26T01:34:27;9.90;;;4.60;;
67696;SDS011;54486;51.442;6.778;2023-06-26T01:36:55;9.40;;;4.72;;
67696;SDS011;54486;51.442;6.778;2023-06-26T01:39:22;8.85;;;4.35;;
67696;SDS011;54486;51.442;6.778;2023-06-26T01:41:51;11.37;;;4.93;;
67696;SDS011;54486;51.442;6.778;2023-06-26T01:44:36;10.40;;;4.57;;
67696;SDS011;54486;51.442;6.778;2023-06-26T01:47:10;10.68;;;4.50;;
67696;SDS011;54486;51.442;6.778;2023-06-26T01:49:52;9.18;;;4.43;;
67696;SDS011;54486;51.442;6.778;2023-06-26T01:52:28;9.63;;;4.43;;
67696;SDS011;54486;51.442;6.778;2023-06-26T01:55:23;9.70;;;4.40;;
67696;SDS011;54486;51.442;6.778;2023-06-26T01:58:00;9.18;;;4.63;;
67696;SDS011;54486;51.442;6.778;2023-06-26T02:00:27;10.50;;;5.15;;
67696;SDS011;54486;51.442;6.778;2023-06-26T02:02:54;10.20;;;4.78;;
67696;SDS011;54486;51.442;6.778;2023-06-26T02:05:22;9.20;;;4.60;;
67696;SDS011;54486;51.442;6.778;2023-06-26T02:07:50;9.03;;;4.77;;
67696;SDS011;54486;51.442;6.778;2023-06-26T02:10:17;9.60;;;4.78;;
67696;SDS011;54486;51.442;6.778;2023-06-26T02:12:45;9.98;;;5.10;;
67696;SDS011;54486;51.442;6.778;2023-06-26T02:15:12;9.63;;;4.77;;
67696;SDS011;54486;51.442;6.778;2023-06-26T02:17:38;9.23;;;4.55;;
67696;SDS011;54486;51.442;6.778;2023-06-26T02:20:06;9.20;;;4.50;;
67696;SDS011;54486;51.442;6.778;2023-06-26T02:22:34;8.82;;;4.40;;
67696;SDS011;54486;51.442;6.778;2023-06-26T02:25:01;9.73;;;4.57;;
67696;SDS011;54486;51.442;6.778;2023-06-26T02:27:28;10.07;;;5.10;;
67696;SDS011;54486;51.442;6.778;2023-06-26T02:29:57;10.32;;;4.95;;
67696;SDS011;54486;51.442;6.778;2023-06-26T02:32:23;10.60;;;5.10;;
67696;SDS011;54486;51.442;6.778;2023-06-26T02:34:50;9.90;;;4.70;;
67696;SDS011;54486;51.442;6.778;2023-06-26T02:37:20;9.98;;;5.18;;
67696;SDS011;54486;51.442;6.778;2023-06-26T02:39:48;9.95;;;4.75;;
67696;SDS011;54486;51.442;6.778;2023-06-26T02:42:15;10.52;;;4.72;;
67696;SDS011;54486;51.442;6.778;2023-06-26T02:44:42;10.05;;;5.10;;
67696;SDS011;54486;51.442;6.778;2023-06-26T02:47:10;9.73;;;4.50;;
67696;SDS011;54486;51.442;6.778;2023-06-26T02:49:37;10.75;;;5.25;;
67696;SDS011;54486;51.442;6.778;2023-06-26T02:52:04;9.30;;;4.60;;
67696;SDS011;54486;51.442;6.778;2023-06-26T02:54:31;11.63;;;5.32;;
67696;SDS011;54486;51.442;6.778;2023-06-26T02:56:59;10.18;;;4.88;;
67696;SDS011;54486;51.442;6.778;2023-06-26T02:59:26;9.48;;;4.55;;
67696;SDS011;54486;51.442;6.778;2023-06-26T03:01:53;10.48;;;4.82;;
67696;SDS011;54486;51.442;6.778;2023-06-26T03:04:20;10.43;;;5.18;;
67696;SDS011;54486;51.442;6.778;2023-06-26T03:06:48;10.73;;;5.35;;
67696;SDS011;54486;51.442;6.778;2023-06-26T03:09:15;11.45;;;5.40;;
67696;SDS011;54486;51.442;6.778;2023-06-26T03:11:43;9.77;;;5.03;;
67696;SDS011;54486;51.442;6.778;2023-06-26T03:14:10;11.13;;;5.40;;
67696;SDS011;54486;51.442;6.778;2023-06-26T03:16:37;11.25;;;5.28;;
67696;SDS011;54486;51.442;6.778;2023-06-26T03:19:04;10.85;;;5.18;;
67696;SDS011;54486;51.442;6.778;2023-06-26T03:21:32;14.40;;;5.60;;
67696;SDS011;54486;51.442;6.778;2023-06-26T03:24:00;11.70;;;5.97;;
67696;SDS011;54486;51.442;6.778;2023-06-26T03:26:27;10.70;;;5.10;;
67696;SDS011;54486;51.442;6.778;2023-06-26T03:28:55;11.10;;;5.07;;
67696;SDS011;54486;51.442;6.778;2023-06-26T03:31:22;10.50;;;4.75;;
67696;SDS011;54486;51.442;6.778;2023-06-26T03:33:50;10.25;;;4.82;;
67696;SDS011;54486;51.442;6.778;2023-06-26T03:36:17;9.93;;;4.70;;
67696;SDS011;54486;51.442;6.778;2023-06-26T03:38:44;10.63;;;4.80;;
67696;SDS011;54486;51.442;6.778;2023-06-26T03:41:12;10.35;;;5.15;;
67696;SDS011;54486;51.442;6.778;2023-06-26T03:43:39;11.07;;;4.93;;
67696;SDS011;54486;51.442;6.778;2023-06-26T03:46:07;11.15;;;5.40;;
67696;SDS011;54486;51.442;6.778;2023-06-26T03:48:33;11.23;;;4.72;;
67696;SDS011;54486;51.442;6.778;2023-06-26T03:51:00;10.67;;;4.67;;
67696;SDS011;54486;51.442;6.778;2023-06-26T03:53:29;9.52;;;4.35;;
67696;SDS011;54486;51.442;6.778;2023-06-26T03:55:56;8.82;;;4.00;;
67696;SDS011;54486;51.442;6.778;2023-06-26T03:58:23;9.63;;;4.10;;
67696;SDS011;54486;51.442;6.778;2023-06-26T04:00:51;9.73;;;4.45;;
67696;SDS011;54486;51.442;6.778;2023-06-26T04:03:19;9.63;;;4.32;;
67696;SDS011;54486;51.442;6.778;2023-06-26T04:05:46;10.23;;;4.03;;
67696;SDS011;54486;51.442;6.778;2023-06-26T04:08:13;11.20;;;4.28;;
67696;SDS011;54486;51.442;6.778;2023-06-26T04:10:40;8.40;;;3.78;;
67696;SDS011;54486;51.442;6.778;2023-06-26T04:13:07;9.23;;;3.30;;
67696;SDS011;54486;51.442;6.778;2023-06-26T04:15:34;9.50;;;3.50;;
67696;SDS011;54486;51.442;6.778;2023-06-26T04:18:01;8.75;;;3.40;;
67696;SDS011;54486;51.442;6.778;2023-06-26T04:20:29;10.15;;;3.80;;
67696;SDS011;54486;51.442;6.778;2023-06-26T04:22:56;8.98;;;3.60;;
67696;SDS011;54486;51.442;6.778;2023-06-26T04:25:24;8.68;;;3.58;;
67696;SDS011;54486;51.442;6.778;2023-06-26T04:27:55;9.48;;;3.75;;
67696;SDS011;54486;51.442;6.778;2023-06-26T04:30:22;10.23;;;3.83;;
67696;SDS011;54486;51.442;6.778;2023-06-26T04:32:50;10.10;;;3.50;;
67696;SDS011;54486;51.442;6.778;2023-06-26T04:35:17;8.98;;;3.40;;
67696;SDS011;54486;51.442;6.778;2023-06-26T04:37:44;8.75;;;3.80;;
67696;SDS011;54486;51.442;6.778;2023-06-26T04:40:12;9.27;;;3.30;;
67696;SDS011;54486;51.442;6.778;2023-06-26T04:42:39;9.93;;;3.70;;
67696;SDS011;54486;51.442;6.778;2023-06-26T04:45:06;9.98;;;3.80;;
67696;SDS011;54486;51.442;6.778;2023-06-26T04:47:34;9.23;;;3.75;;
67696;SDS011;54486;51.442;6.778;2023-06-26T04:50:01;9.85;;;4.10;;
67696;SDS011;54486;51.442;6.778;2023-06-26T04:52:28;10.60;;;4.33;;
67696;SDS011;54486;51.442;6.778;2023-06-26T04:54:55;9.20;;;3.78;;
67696;SDS011;54486;51.442;6.778;2023-06-26T04:57:22;9.32;;;4.13;;
67696;SDS011;54486;51.442;6.778;2023-06-26T04:59:49;11.50;;;4.85;;
67696;SDS011;54486;51.442;6.778;2023-06-26T05:02:17;9.30;;;4.25;;
67696;SDS011;54486;51.442;6.778;2023-06-26T05:04:44;9.75;;;4.57;;
67696;SDS011;54486;51.442;6.778;2023-06-26T05:07:12;9.98;;;4.60;;
67696;SDS011;54486;51.442;6.778;2023-06-26T05:09:40;10.45;;;4.80;;
67696;SDS011;54486;51.442;6.778;2023-06-26T05:12:07;11.55;;;4.47;;
67696;SDS011;54486;51.442;6.778;2023-06-26T05:14:34;10.25;;;4.47;;
67696;SDS011;54486;51.442;6.778;2023-06-26T05:17:01;9.75;;;4.55;;
67696;SDS011;54486;51.442;6.778;2023-06-26T05:19:28;9.18;;;4.15;;
67696;SDS011;54486;51.442;6.778;2023-06-26T05:21:55;9.30;;;4.00;;
67696;SDS011;54486;51.442;6.778;2023-06-26T05:24:22;10.57;;;4.22;;
67696;SDS011;54486;51.442;6.778;2023-06-26T05:26:50;8.50;;;3.70;;
67696;SDS011;54486;51.442;6.778;2023-06-26T05:29:19;9.70;;;3.53;;
67696;SDS011;54486;51.442;6.778;2023-06-26T05:31:45;9.95;;;3.60;;
67696;SDS011;54486;51.442;6.778;2023-06-26T05:34:16;10.05;;;3.63;;
67696;SDS011;54486;51.442;6.778;2023-06-26T05:36:46;8.95;;;3.30;;
67696;SDS011;54486;51.442;6.778;2023-06-26T05:39:17;9.70;;;3.40;;
67696;SDS011;54486;51.442;6.778;2023-06-26T05:41:44;10.30;;;3.50;;
67696;SDS011;54486;51.442;6.778;2023-06-26T05:44:12;8.57;;;3.17;;
67696;SDS011;54486;51.442;6.778;2023-06-26T05:46:38;9.18;;;3.35;;
67696;SDS011;54486;51.442;6.778;2023-06-26T05:49:06;9.55;;;3.10;;
67696;SDS011;54486;51.442;6.778;2023-06-26T05:51:33;9.20;;;3.35;;
67696;SDS011;54486;51.442;6.778;2023-06-26T05:54:01;9.50;;;3.20;;
67696;SDS011;54486;51.442;6.778;2023-06-26T05:56:28;8.20;;;3.17;;
67696;SDS011;54486;51.442;6.778;2023-06-26T05:58:55;9.52;;;3.30;;
67696;SDS011;54486;51.442;6.778;2023-06-26T06:01:23;9.38;;;3.15;;
67696;SDS011;54486;51.442;6.778;2023-06-26T06:03:51;9.13;;;3.08;;
67696;SDS011;54486;51.442;6.778;2023-06-26T06:06:18;10.35;;;3.05;;
67696;SDS011;54486;51.442;6.778;2023-06-26T06:08:45;9.45;;;3.33;;
67696;SDS011;54486;51.442;6.778;2023-06-26T06:11:15;8.82;;;3.28;;
67696;SDS011;54486;51.442;6.778;2023-06-26T06:13:42;9.63;;;3.13;;
67696;SDS011;54486;51.442;6.778;2023-06-26T06:16:09;9.98;;;3.05;;
67696;SDS011;54486;51.442;6.778;2023-06-26T06:18:36;9.90;;;3.25;;
67696;SDS011;54486;51.442;6.778;2023-06-26T06:21:04;11.80;;;3.20;;
67696;SDS011;54486;51.442;6.778;2023-06-26T06:23:31;9.45;;;3.60;;
67696;SDS011;54486;51.442;6.778;2023-06-26T06:25:58;10.70;;;3.20;;
67696;SDS011;54486;51.442;6.778;2023-06-26T06:28:25;8.93;;;2.97;;
67696;SDS011;54486;51.442;6.778;2023-06-26T06:30:52;9.85;;;3.47;;
67696;SDS011;54486;51.442;6.778;2023-06-26T06:33:20;9.63;;;3.42;;
67696;SDS011;54486;51.442;6.778;2023-06-26T06:35:48;10.98;;;3.60;;
67696;SDS011;54486;51.442;6.778;2023-06-26T06:38:15;10.50;;;3.50;;
67696;SDS011;54486;51.442;6.778;2023-06-26T06:40:42;10.10;;;3.13;;
67696;SDS011;54486;51.442;6.778;2023-06-26T06:43:09;10.90;;;3.67;;
67696;SDS011;54486;51.442;6.778;2023-06-26T06:45:36;10.23;;;3.05;;
67696;SDS011;54486;51.442;6.778;2023-06-26T06:48:04;9.60;;;3.03;;
67696;SDS011;54486;51.442;6.778;2023-06-26T06:50:32;10.93;;;3.40;;
67696;SDS011;54486;51.442;6.778;2023-06-26T06:52:59;12.65;;;3.60;;
67696;SDS011;54486;51.442;6.778;2023-06-26T06:55:26;12.52;;;3.33;;
67696;SDS011;54486;51.442;6.778;2023-06-26T06:57:53;9.93;;;3.00;;
67696;SDS011;54486;51.442;6.778;2023-06-26T07:00:21;10.55;;;3.55;;
67696;SDS011;54486;51.442;6.778;2023-06-26T07:02:48;10.10;;;3.45;;
67696;SDS011;54486;51.442;6.778;2023-06-26T07:05:16;9.68;;;3.70;;
67696;SDS011;54486;51.442;6.778;2023-06-26T07:07:43;9.88;;;3.45;;
67696;SDS011;54486;51.442;6.778;2023-06-26T07:10:12;10.00;;;3.03;;
67696;SDS011;54486;51.442;6.778;2023-06-26T07:12:41;10.23;;;3.30;;
67696;SDS011;54486;51.442;6.778;2023-06-26T07:15:08;9.27;;;3.53;;
67696;SDS011;54486;51.442;6.778;2023-06-26T07:17:35;9.45;;;3.50;;
67696;SDS011;54486;51.442;6.778;2023-06-26T07:20:05;10.70;;;3.40;;
67696;SDS011;54486;51.442;6.778;2023-06-26T07:22:34;10.73;;;4.07;;
67696;SDS011;54486;51.442;6.778;2023-06-26T07:25:02;10.55;;;3.80;;
67696;SDS011;54486;51.442;6.778;2023-06-26T07:27:31;12.25;;;4.18;;
67696;SDS011;54486;51.442;6.778;2023-06-26T07:30:00;10.70;;;4.10;;
67696;SDS011;54486;51.442;6.778;2023-06-26T07:32:28;11.37;;;4.17;;
67696;SDS011;54486;51.442;6.778;2023-06-26T07:34:55;10.80;;;3.80;;
67696;SDS011;54486;51.442;6.778;2023-06-26T07:37:22;9.60;;;4.25;;
67696;SDS011;54486;51.442;6.778;2023-06-26T07:39:49;10.95;;;3.85;;
67696;SDS011;54486;51.442;6.778;2023-06-26T07:42:17;10.40;;;3.67;;
67696;SDS011;54486;51.442;6.778;2023-06-26T07:44:44;10.90;;;3.90;;
67696;SDS011;54486;51.442;6.778;2023-06-26T07:47:11;10.70;;;3.70;;
67696;SDS011;54486;51.442;6.778;2023-06-26T07:49:39;12.90;;;4.40;;
67696;SDS011;54486;51.442;6.778;2023-06-26T07:52:07;11.83;;;4.10;;
67696;SDS011;54486;51.442;6.778;2023-06-26T07:54:37;11.55;;;3.90;;
67696;SDS011;54486;51.442;6.778;2023-06-26T07:57:04;9.80;;;3.80;;
67696;SDS011;54486;51.442;6.778;2023-06-26T07:59:35;10.25;;;3.80;;
67696;SDS011;54486;51.442;6.778;2023-06-26T08:02:03;11.90;;;3.85;;
67696;SDS011;54486;51.442;6.778;2023-06-26T08:04:30;9.93;;;3.60;;
67696;SDS011;54486;51.442;6.778;2023-06-26T08:06:59;10.52;;;3.22;;
67696;SDS011;54486;51.442;6.778;2023-06-26T08:09:28;9.68;;;3.25;;
67696;SDS011;54486;51.442;6.778;2023-06-26T08:11:57;9.55;;;3.00;;
67696;SDS011;54486;51.442;6.778;2023-06-26T08:14:25;9.10;;;3.08;;
67696;SDS011;54486;51.442;6.778;2023-06-26T08:16:52;11.32;;;3.63;;
67696;SDS011;54486;51.442;6.778;2023-06-26T08:19:20;11.60;;;3.35;;
67696;SDS011;54486;51.442;6.778;2023-06-26T08:21:47;10.43;;;2.90;;
67696;SDS011;54486;51.442;6.778;2023-06-26T08:24:17;9.82;;;2.95;;
67696;SDS011;54486;51.442;6.778;2023-06-26T08:26:46;9.00;;;2.90;;
67696;SDS011;54486;51.442;6.778;2023-06-26T08:29:13;10.10;;;3.07;;
67696;SDS011;54486;51.442;6.778;2023-06-26T08:31:41;11.85;;;2.95;;
67696;SDS011;54486;51.442;6.778;2023-06-26T08:34:09;10.30;;;2.90;;
67696;SDS011;54486;51.442;6.778;2023-06-26T08:36:36;9.90;;;2.90;;
67696;SDS011;54486;51.442;6.778;2023-06-26T08:39:03;9.10;;;2.70;;
67696;SDS011;54486;51.442;6.778;2023-06-26T08:41:32;8.70;;;3.10;;
67696;SDS011;54486;51.442;6.778;2023-06-26T08:43:59;10.43;;;2.83;;
67696;SDS011;54486;51.442;6.778;2023-06-26T08:46:27;9.33;;;2.73;;
67696;SDS011;54486;51.442;6.778;2023-06-26T08:48:56;9.27;;;2.95;;
67696;SDS011;54486;51.442;6.778;2023-06-26T08:51:24;10.10;;;2.78;;
67696;SDS011;54486;51.442;6.778;2023-06-26T08:53:56;11.50;;;3.10;;
67696;SDS011;54486;51.442;6.778;2023-06-26T08:56:24;10.40;;;3.03;;
67696;SDS011;54486;51.442;6.778;2023-06-26T08:58:58;9.73;;;3.07;;
67696;SDS011;54486;51.442;6.778;2023-06-26T09:01:28;8.60;;;2.75;;
67696;SDS011;54486;51.442;6.778;2023-06-26T09:03:55;9.00;;;2.90;;
67696;SDS011;54486;51.442;6.778;2023-06-26T09:06:22;9.57;;;3.00;;
67696;SDS011;54486;51.442;6.778;2023-06-26T09:08:50;9.75;;;3.08;;
67696;SDS011;54486;51.442;6.778;2023-06-26T09:11:17;9.23;;;3.17;;
67696;SDS011;54486;51.442;6.778;2023-06-26T09:13:44;8.23;;;2.90;;
67696;SDS011;54486;51.442;6.778;2023-06-26T09:16:11;8.88;;;2.88;;
67696;SDS011;54486;51.442;6.778;2023-06-26T09:18:42;10.75;;;3.30;;
67696;SDS011;54486;51.442;6.778;2023-06-26T09:21:09;9.82;;;3.03;;
67696;SDS011;54486;51.442;6.778;2023-06-26T09:23:39;10.13;;;2.70;;
67696;SDS011;54486;51.442;6.778;2023-06-26T09:26:07;10.25;;;2.97;;
67696;SDS011;54486;51.442;6.778;2023-06-26T09:28:34;9.38;;;2.83;;
67696;SDS011;54486;51.442;6.778;2023-06-26T09:31:05;8.52;;;2.70;;
67696;SDS011;54486;51.442;6.778;2023-06-26T09:33:34;9.10;;;2.67;;
67696;SDS011;54486;51.442;6.778;2023-06-26T09:36:08;7.68;;;2.47;;
67696;SDS011;54486;51.442;6.778;2023-06-26T09:38:44;9.80;;;2.70;;
67696;SDS011;54486;51.442;6.778;2023-06-26T09:41:12;9.27;;;2.75;;
67696;SDS011;54486;51.442;6.778;2023-06-26T09:43:49;8.88;;;2.80;;
67696;SDS011;54486;51.442;6.778;2023-06-26T09:46:25;10.35;;;2.90;;
67696;SDS011;54486;51.442;6.778;2023-06-26T09:49:06;8.73;;;2.47;;
67696;SDS011;54486;51.442;6.778;2023-06-26T09:51:34;8.20;;;2.50;;
67696;SDS011;54486;51.442;6.778;2023-06-26T09:54:03;7.68;;;2.30;;
67696;SDS011;54486;51.442;6.778;2023-06-26T09:56:31;9.82;;;2.58;;
67696;SDS011;54486;51.442;6.778;2023-06-26T09:59:00;10.80;;;2.90;;
67696;SDS011;54486;51.442;6.778;2023-06-26T10:01:31;7.53;;;2.50;;
67696;SDS011;54486;51.442;6.778;2023-06-26T10:04:02;7.68;;;2.42;;
67696;SDS011;54486;51.442;6.778;2023-06-26T10:06:34;9.38;;;2.40;;
67696;SDS011;54486;51.442;6.778;2023-06-26T10:09:03;7.40;;;2.35;;
67696;SDS011;54486;51.442;6.778;2023-06-26T10:11:43;9.27;;;2.60;;
67696;SDS011;54486;51.442;6.778;2023-06-26T10:14:15;8.18;;;2.38;;
67696;SDS011;54486;51.442;6.778;2023-06-26T10:16:44;8.27;;;2.40;;
67696;SDS011;54486;51.442;6.778;2023-06-26T10:19:16;10.20;;;2.63;;
67696;SDS011;54486;51.442;6.778;2023-06-26T10:21:47;8.90;;;2.55;;
67696;SDS011;54486;51.442;6.778;2023-06-26T10:24:15;9.77;;;2.43;;
67696;SDS011;54486;51.442;6.778;2023-06-26T10:26:44;7.55;;;2.08;;
67696;SDS011;54486;51.442;6.778;2023-06-26T10:29:13;7.15;;;2.30;;
67696;SDS011;54486;51.442;6.778;2023-06-26T10:31:43;8.02;;;2.45;;
67696;SDS011;54486;51.442;6.778;2023-06-26T10:34:13;9.00;;;2.55;;
67696;SDS011;54486;51.442;6.778;2023-06-26T10:36:41;7.32;;;2.55;;
67696;SDS011;54486;51.442;6.778;2023-06-26T10:39:08;9.15;;;2.38;;
67696;SDS011;54486;51.442;6.778;2023-06-26T10:41:36;7.77;;;2.50;;
67696;SDS011;54486;51.442;6.778;2023-06-26T10:44:18;8.55;;;2.20;;
67696;SDS011;54486;51.442;6.778;2023-06-26T10:46:50;7.75;;;2.38;;
67696;SDS011;54486;51.442;6.778;2023-06-26T10:49:20;8.82;;;2.80;;
67696;SDS011;54486;51.442;6.778;2023-06-26T10:51:48;6.93;;;2.33;;
67696;SDS011;54486;51.442;6.778;2023-06-26T10:54:17;8.00;;;2.40;;
67696;SDS011;54486;51.442;6.778;2023-06-26T10:56:46;7.68;;;2.17;;
67696;SDS011;54486;51.442;6.778;2023-06-26T10:59:18;6.75;;;1.85;;
67696;SDS011;54486;51.442;6.778;2023-06-26T11:04:38;6.50;;;1.65;;
67696;SDS011;54486;51.442;6.778;2023-06-26T11:07:17;7.20;;;1.65;;
67696;SDS011;54486;51.442;6.778;2023-06-26T11:09:56;6.80;;;1.60;;
67696;SDS011;54486;51.442;6.778;2023-06-26T11:12:35;6.50;;;1.60;;
67696;SDS011;54486;51.442;6.778;2023-06-26T11:15:10;5.93;;;1.40;;
67696;SDS011;54486;51.442;6.778;2023-06-26T11:17:37;5.88;;;1.42;;
67696;SDS011;54486;51.442;6.778;2023-06-26T11:20:08;5.57;;;1.58;;
67696;SDS011;54486;51.442;6.778;2023-06-26T11:22:37;7.40;;;1.87;;
67696;SDS011;54486;51.442;6.778;2023-06-26T11:25:06;7.20;;;1.77;;
67696;SDS011;54486;51.442;6.778;2023-06-26T11:30:05;5.82;;;1.55;;
67696;SDS011;54486;51.442;6.778;2023-06-26T11:32:34;5.57;;;1.40;;
67696;SDS011;54486;51.442;6.778;2023-06-26T11:35:03;5.55;;;1.45;;
67696;SDS011;54486;51.442;6.778;2023-06-26T11:37:32;5.63;;;1.70;;
67696;SDS011;54486;51.442;6.778;2023-06-26T11:40:15;6.30;;;1.58;;
67696;SDS011;54486;51.442;6.778;2023-06-26T11:42:42;6.65;;;1.45;;
67696;SDS011;54486;51.442;6.778;2023-06-26T11:45:11;4.37;;;1.20;;
67696;SDS011;54486;51.442;6.778;2023-06-26T11:47:39;6.07;;;1.50;;
67696;SDS011;54486;51.442;6.778;2023-06-26T11:50:06;5.63;;;1.40;;
67696;SDS011;54486;51.442;6.778;2023-06-26T11:52:34;5.18;;;1.25;;
67696;SDS011;54486;51.442;6.778;2023-06-26T11:55:00;5.35;;;1.40;;
67696;SDS011;54486;51.442;6.778;2023-06-26T11:57:30;4.45;;;0.95;;
67696;SDS011;54486;51.442;6.778;2023-06-26T11:59:57;5.20;;;1.20;;
67696;SDS011;54486;51.442;6.778;2023-06-26T12:02:25;4.80;;;1.25;;
67696;SDS011;54486;51.442;6.778;2023-06-26T12:04:52;5.30;;;1.30;;
67696;SDS011;54486;51.442;6.778;2023-06-26T12:07:19;4.88;;;1.10;;
67696;SDS011;54486;51.442;6.778;2023-06-26T12:09:47;5.60;;;1.40;;
67696;SDS011;54486;51.442;6.778;2023-06-26T12:12:16;4.73;;;1.20;;
67696;SDS011;54486;51.442;6.778;2023-06-26T12:14:44;6.85;;;1.30;;
67696;SDS011;54486;51.442;6.778;2023-06-26T12:17:12;3.67;;;1.10;;
67696;SDS011;54486;51.442;6.778;2023-06-26T12:19:44;4.00;;;1.00;;
67696;SDS011;54486;51.442;6.778;2023-06-26T12:22:16;4.38;;;1.02;;
67696;SDS011;54486;51.442;6.778;2023-06-26T12:24:44;5.05;;;1.02;;
67696;SDS011;54486;51.442;6.778;2023-06-26T12:27:13;5.10;;;1.13;;
67696;SDS011;54486;51.442;6.778;2023-06-26T12:30:03;5.18;;;1.10;;
67696;SDS011;54486;51.442;6.778;2023-06-26T12:32:32;3.17;;;0.80;;
67696;SDS011;54486;51.442;6.778;2023-06-26T12:34:59;3.92;;;0.98;;
67696;SDS011;54486;51.442;6.778;2023-06-26T12:37:27;6.32;;;1.50;;
67696;SDS011;54486;51.442;6.778;2023-06-26T12:39:55;4.07;;;1.00;;
67696;SDS011;54486;51.442;6.778;2023-06-26T12:42:28;5.45;;;1.20;;
67696;SDS011;54486;51.442;6.778;2023-06-26T12:44:56;3.63;;;0.90;;
67696;SDS011;54486;51.442;6.778;2023-06-26T12:47:24;4.78;;;1.05;;
67696;SDS011;54486;51.442;6.778;2023-06-26T12:49:54;3.40;;;0.95;;
67696;SDS011;54486;51.442;6.778;2023-06-26T12:52:21;4.35;;;1.05;;
67696;SDS011;54486;51.442;6.778;2023-06-26T12:54:51;4.57;;;1.10;;
67696;SDS011;54486;51.442;6.778;2023-06-26T12:57:20;5.00;;;1.00;;
67696;SDS011;54486;51.442;6.778;2023-06-26T12:59:47;5.30;;;1.02;;
67696;SDS011;54486;51.442;6.778;2023-06-26T13:02:14;4.13;;;0.98;;
67696;SDS011;54486;51.442;6.778;2023-06-26T13:04:42;5.38;;;1.10;;
67696;SDS011;54486;51.442;6.778;2023-06-26T13:07:12;4.37;;;1.00;;
67696;SDS011;54486;51.442;6.778;2023-06-26T13:09:39;5.03;;;1.17;;
67696;SDS011;54486;51.442;6.778;2023-06-26T13:12:07;4.50;;;1.10;;
67696;SDS011;54486;51.442;6.778;2023-06-26T13:14:35;5.30;;;1.00;;
67696;SDS011;54486;51.442;6.778;2023-06-26T13:17:02;6.43;;;1.20;;
67696;SDS011;54486;51.442;6.778;2023-06-26T13:19:33;5.00;;;1.05;;
67696;SDS011;54486;51.442;6.778;2023-06-26T13:22:01;5.70;;;1.10;;
67696;SDS011;54486;51.442;6.778;2023-06-26T13:24:28;6.63;;;1.10;;
67696;SDS011;54486;51.442;6.778;2023-06-26T13:26:55;4.85;;;0.90;;
67696;SDS011;54486;51.442;6.778;2023-06-26T13:29:22;4.33;;;1.20;;
67696;SDS011;54486;51.442;6.778;2023-06-26T13:31:49;5.25;;;1.15;;
67696;SDS011;54486;51.442;6.778;2023-06-26T13:34:22;5.40;;;1.25;;
67696;SDS011;54486;51.442;6.778;2023-06-26T13:36:50;5.88;;;1.33;;
67696;SDS011;54486;51.442;6.778;2023-06-26T13:39:17;4.72;;;1.23;;
67696;SDS011;54486;51.442;6.778;2023-06-26T13:41:44;5.35;;;1.27;;
67696;SDS011;54486;51.442;6.778;2023-06-26T13:44:12;4.10;;;1.02;;
67696;SDS011;54486;51.442;6.778;2023-06-26T13:46:59;6.95;;;1.20;;
67696;SDS011;54486;51.442;6.778;2023-06-26T13:49:26;4.63;;;1.10;;
67696;SDS011;54486;51.442;6.778;2023-06-26T13:51:53;5.57;;;1.20;;
67696;SDS011;54486;51.442;6.778;2023-06-26T13:54:20;5.03;;;1.05;;
67696;SDS011;54486;51.442;6.778;2023-06-26T13:56:47;4.70;;;1.10;;
67696;SDS011;54486;51.442;6.778;2023-06-26T13:59:14;5.82;;;1.10;;
67696;SDS011;54486;51.442;6.778;2023-06-26T14:01:42;4.45;;;1.02;;
67696;SDS011;54486;51.442;6.778;2023-06-26T14:04:10;4.53;;;1.10;;
67696;SDS011;54486;51.442;6.778;2023-06-26T14:06:38;4.15;;;1.02;;
67696;SDS011;54486;51.442;6.778;2023-06-26T14:09:05;4.85;;;1.27;;
67696;SDS011;54486;51.442;6.778;2023-06-26T14:11:34;5.20;;;1.08;;
67696;SDS011;54486;51.442;6.778;2023-06-26T14:14:02;4.10;;;1.10;;
67696;SDS011;54486;51.442;6.778;2023-06-26T14:16:30;5.22;;;1.17;;
67696;SDS011;54486;51.442;6.778;2023-06-26T14:19:00;4.15;;;1.10;;
67696;SDS011;54486;51.442;6.778;2023-06-26T14:21:27;4.72;;;1.20;;
67696;SDS011;54486;51.442;6.778;2023-06-26T14:23:55;4.57;;;0.90;;
67696;SDS011;54486;51.442;6.778;2023-06-26T14:26:22;4.73;;;0.90;;
67696;SDS011;54486;51.442;6.778;2023-06-26T14:28:49;5.07;;;1.10;;
67696;SDS011;54486;51.442;6.778;2023-06-26T14:31:17;5.22;;;1.00;;
67696;SDS011;54486;51.442;6.778;2023-06-26T14:33:44;4.07;;;0.85;;
67696;SDS011;54486;51.442;6.778;2023-06-26T14:36:11;4.43;;;1.20;;
67696;SDS011;54486;51.442;6.778;2023-06-26T14:38:38;4.95;;;1.20;;
67696;SDS011;54486;51.442;6.778;2023-06-26T14:41:06;4.90;;;1.10;;
67696;SDS011;54486;51.442;6.778;2023-06-26T14:43:33;3.90;;;1.00;;
67696;SDS011;54486;51.442;6.778;2023-06-26T14:46:00;6.82;;;1.30;;
67696;SDS011;54486;51.442;6.778;2023-06-26T14:48:28;5.05;;;1.10;;
67696;SDS011;54486;51.442;6.778;2023-06-26T14:50:56;5.80;;;1.10;;
67696;SDS011;54486;51.442;6.778;2023-06-26T14:53:23;5.50;;;1.00;;
67696;SDS011;54486;51.442;6.778;2023-06-26T14:55:51;4.78;;;1.02;;